Time;durP1;ratioP1;P1;durP2;ratioP2;P2;SDS_P1;SDS_P2;PMS_P1;PMS_P2;Temp;Humidity;BMP_temperature;BMP_pressure;BME280_temperature;BME280_humidity;BME280_pressure;Samples;Min_cycle;Max_cycle;Signal;HPM_P1;HPM_P2
2021/08/07 00:04:04;;;;;;;1.27;0.90;;;20.70;72.70;;;;;;10423036;28;20480;-29
2021/08/07 00:09:28;;;;;;;1.77;0.93;;;20.70;72.50;;;;;;10421662;28;20609;-29
2021/08/07 00:14:50;;;;;;;1.30;1.13;;;20.70;73.70;;;;;;10422502;28;20596;-29
2021/08/07 00:20:12;;;;;;;1.13;0.87;;;20.70;72.60;;;;;;10420207;28;20601;-29
2021/08/07 00:25:36;;;;;;;3.33;1.37;;;20.70;72.80;;;;;;10418917;28;20221;-29
2021/08/07 00:30:58;;;;;;;1.87;1.10;;;20.70;73.60;;;;;;10412795;28;20496;-29
2021/08/07 00:36:20;;;;;;;2.67;1.20;;;20.70;72.70;;;;;;10420937;28;20224;-29
2021/08/07 00:41:43;;;;;;;2.03;1.07;;;20.80;72.90;;;;;;10379020;28;20194;-28
2021/08/07 00:47:05;;;;;;;1.80;1.40;;;20.70;73.10;;;;;;10378988;28;20222;-30
2021/08/07 00:52:28;;;;;;;1.00;0.90;;;20.70;72.20;;;;;;10388368;28;20194;-30
2021/08/07 00:57:51;;;;;;;3.83;1.30;;;20.70;72.90;;;;;;10436205;28;20606;-33
2021/08/07 01:03:20;;;;;;;1.30;0.83;;;20.70;72.80;;;;;;10424813;28;20195;-30
2021/08/07 01:08:53;;;;;;;1.60;1.20;;;20.70;72.50;;;;;;10379634;28;20705;-31
2021/08/07 01:14:22;;;;;;;1.63;1.20;;;20.70;73.70;;;;;;10378196;28;20219;-32
2021/08/07 01:19:51;;;;;;;1.50;1.00;;;20.70;72.60;;;;;;10379648;28;20195;-30
2021/08/07 01:25:17;;;;;;;2.40;1.20;;;20.70;72.50;;;;;;10451414;28;20207;-32
2021/08/07 01:30:41;;;;;;;1.90;1.23;;;20.70;73.70;;;;;;10398124;28;20224;-27
2021/08/07 01:36:04;;;;;;;2.67;1.10;;;20.60;72.40;;;;;;10377826;28;20217;-29
2021/08/07 01:41:26;;;;;;;1.10;1.00;;;20.70;72.70;;;;;;10379113;28;20198;-28
2021/08/07 01:46:57;;;;;;;1.20;1.10;;;20.70;73.30;;;;;;10378569;28;20744;-32
2021/08/07 01:52:24;;;;;;;2.30;1.10;;;20.70;72.40;;;;;;10378770;28;20199;-30
2021/08/07 01:57:55;;;;;;;1.17;0.90;;;20.70;73.10;;;;;;10388022;28;20214;-29
2021/08/07 02:03:19;;;;;;;1.00;0.90;;;20.60;72.60;;;;;;10386636;28;20199;-29
2021/08/07 02:08:42;;;;;;;1.53;1.10;;;20.70;72.20;;;;;;10385790;28;20569;-29
2021/08/07 02:14:05;;;;;;;1.13;1.03;;;20.70;73.20;;;;;;10386508;28;20740;-31
2021/08/07 02:19:30;;;;;;;2.33;0.80;;;20.70;72.50;;;;;;10386830;28;20234;-29
2021/08/07 02:24:52;;;;;;;1.37;1.10;;;20.70;72.20;;;;;;10460651;28;20220;-30
2021/08/07 02:30:14;;;;;;;1.20;0.90;;;20.70;73.20;;;;;;10425710;28;20218;-29
2021/08/07 02:35:38;;;;;;;0.60;0.60;;;20.70;72.20;;;;;;10426689;28;20241;-29
2021/08/07 02:41:02;;;;;;;1.30;1.20;;;20.70;72.30;;;;;;10426286;28;20198;-29
2021/08/07 02:46:25;;;;;;;1.00;0.90;;;20.60;73.20;;;;;;10400999;28;20221;-30
2021/08/07 02:51:50;;;;;;;2.10;1.00;;;20.60;72.00;;;;;;10415346;28;20198;-29
2021/08/07 02:57:13;;;;;;;1.40;1.17;;;20.70;72.50;;;;;;10424434;28;20297;-29
2021/08/07 03:02:35;;;;;;;1.00;0.90;;;20.60;72.70;;;;;;10427256;28;20205;-31
2021/08/07 03:07:59;;;;;;;1.87;1.10;;;20.70;72.10;;;;;;10423684;28;20220;-32
2021/08/07 03:13:21;;;;;;;1.23;1.13;;;20.70;73.20;;;;;;10424133;28;20539;-29
2021/08/07 03:18:43;;;;;;;1.67;0.90;;;20.60;72.20;;;;;;10423759;28;20198;-29
2021/08/07 03:24:08;;;;;;;3.63;1.30;;;20.70;72.30;;;;;;10454781;28;20588;-30
2021/08/07 03:29:30;;;;;;;1.20;0.90;;;20.60;73.20;;;;;;10430427;28;20218;-28
2021/08/07 03:34:52;;;;;;;1.00;0.80;;;20.60;71.60;;;;;;10419049;28;20841;-29
2021/08/07 03:40:16;;;;;;;1.10;1.00;;;20.70;72.50;;;;;;10381702;28;20677;-29
2021/08/07 03:45:38;;;;;;;1.00;0.93;;;20.60;72.50;;;;;;10435177;23;20232;-23
2021/08/07 03:51:00;;;;;;;1.90;0.93;;;20.60;71.70;;;;;;10471834;28;20224;-22
2021/08/07 03:56:23;;;;;;;1.30;1.20;;;20.70;72.60;;;;;;10454821;28;20220;-24
2021/08/07 04:01:46;;;;;;;1.03;0.93;;;20.60;72.20;;;;;;10454869;28;20189;-22
2021/08/07 04:07:08;;;;;;;1.30;1.00;;;20.70;71.90;;;;;;10462719;28;20707;-22
2021/08/07 04:12:31;;;;;;;1.30;0.97;;;20.60;73.00;;;;;;10495126;28;20204;-22
2021/08/07 04:17:53;;;;;;;1.30;1.20;;;20.60;71.90;;;;;;10494297;28;20231;-24
2021/08/07 04:23:15;;;;;;;1.57;1.00;;;20.60;72.00;;;;;;10494981;28;20193;-24
2021/08/07 04:28:39;;;;;;;1.73;1.00;;;20.60;72.50;;;;;;10495812;28;20407;-22
2021/08/07 04:34:01;;;;;;;1.80;1.10;;;20.70;71.70;;;;;;10493477;28;20220;-23
2021/08/07 04:39:23;;;;;;;1.13;1.03;;;20.60;72.60;;;;;;10493734;28;20188;-23
2021/08/07 04:44:46;;;;;;;1.80;1.23;;;20.60;71.80;;;;;;10493761;28;20228;-22
2021/08/07 04:50:09;;;;;;;1.50;1.17;;;20.70;72.00;;;;;;10490329;28;20219;-22
2021/08/07 04:55:31;;;;;;;0.97;0.90;;;20.60;72.70;;;;;;10493381;28;20212;-23
2021/08/07 05:00:55;;;;;;;2.77;1.00;;;20.60;71.60;;;;;;10488427;28;20198;-25
2021/08/07 05:06:17;;;;;;;1.70;1.10;;;20.70;72.50;;;;;;10483472;28;20220;-22
2021/08/07 05:11:39;;;;;;;1.33;1.20;;;20.60;72.00;;;;;;10493800;28;20224;-22
2021/08/07 05:17:03;;;;;;;1.37;1.20;;;20.70;72.20;;;;;;10493772;28;20227;-23
2021/08/07 05:22:25;;;;;;;1.93;1.23;;;20.60;73.00;;;;;;10492555;28;20549;-24
2021/08/07 05:27:47;;;;;;;1.10;1.00;;;20.60;71.60;;;;;;10492992;28;20577;-24
2021/08/07 05:33:10;;;;;;;2.07;1.27;;;20.70;72.50;;;;;;10491799;28;20207;-22
2021/08/07 05:38:33;;;;;;;1.47;1.10;;;20.60;72.30;;;;;;10492076;28;20213;-23
2021/08/07 05:43:55;;;;;;;2.50;1.23;;;20.70;72.30;;;;;;10488269;28;20208;-23
2021/08/07 05:49:18;;;;;;;1.10;1.00;;;20.60;73.00;;;;;;10487805;28;20219;-23
2021/08/07 05:54:40;;;;;;;1.00;0.90;;;20.60;71.90;;;;;;10490132;28;20220;-23
2021/08/07 06:00:02;;;;;;;1.00;0.90;;;20.70;72.80;;;;;;10489479;28;20185;-22
2021/08/07 06:05:26;;;;;;;2.07;1.10;;;20.70;72.20;;;;;;10489197;28;20215;-23
2021/08/07 06:10:48;;;;;;;3.13;1.30;;;20.70;72.80;;;;;;10490800;28;20215;-23
2021/08/07 06:16:10;;;;;;;1.00;0.90;;;20.70;72.90;;;;;;10490536;28;20212;-23
2021/08/07 06:21:33;;;;;;;1.00;1.00;;;20.70;72.40;;;;;;10491541;28;20201;-22
2021/08/07 06:26:55;;;;;;;2.53;1.00;;;20.60;73.20;;;;;;10491120;28;20208;-21
2021/08/07 06:32:17;;;;;;;2.80;1.10;;;20.70;73.40;;;;;;10493177;28;20188;-22
2021/08/07 06:37:41;;;;;;;2.53;1.90;;;20.70;73.70;;;;;;10491075;28;20710;-22
2021/08/07 06:43:03;;;;;;;3.53;1.70;;;20.60;75.50;;;;;;10496416;28;20196;-23
2021/08/07 06:48:25;;;;;;;2.70;1.63;;;20.50;76.80;;;;;;10498013;28;20219;-22
2021/08/07 06:53:49;;;;;;;1.80;1.33;;;20.50;77.90;;;;;;10499513;28;20204;-22
2021/08/07 06:59:11;;;;;;;2.73;1.53;;;20.50;77.30;;;;;;10490871;28;20191;-22
2021/08/07 07:04:34;;;;;;;1.17;1.07;;;20.50;77.10;;;;;;10494974;28;20220;-23
2021/08/07 07:09:58;;;;;;;2.13;1.20;;;20.50;76.40;;;;;;10498056;28;20216;-22
2021/08/07 07:15:20;;;;;;;2.10;1.10;;;20.60;76.60;;;;;;10498249;28;20220;-22
2021/08/07 07:20:42;;;;;;;2.60;1.40;;;20.60;76.60;;;;;;10493709;28;20193;-22
2021/08/07 07:26:06;;;;;;;1.47;1.13;;;20.60;76.40;;;;;;10488906;28;20711;-22
2021/08/07 07:31:28;;;;;;;1.43;1.27;;;20.60;76.90;;;;;;10496527;28;20226;-21
2021/08/07 07:36:50;;;;;;;2.57;1.10;;;20.60;77.00;;;;;;10490155;28;20759;-22
2021/08/07 07:42:14;;;;;;;3.40;1.20;;;20.60;77.80;;;;;;10521801;28;20195;-22
2021/08/07 07:47:36;;;;;;;4.23;1.43;;;20.60;77.40;;;;;;10503937;28;20224;-22
2021/08/07 07:52:58;;;;;;;2.20;1.20;;;20.50;77.80;;;;;;10496238;28;20197;-22
2021/08/07 07:58:22;;;;;;;4.33;1.60;;;20.50;78.10;;;;;;10495367;28;20540;-23
2021/08/07 08:03:44;;;;;;;4.80;1.50;;;20.50;77.90;;;;;;10496027;28;20258;-21
2021/08/07 08:09:06;;;;;;;3.20;1.40;;;20.50;78.00;;;;;;10494714;28;20216;-23
2021/08/07 08:14:29;;;;;;;4.57;1.70;;;20.50;77.70;;;;;;10495487;28;20711;-22
2021/08/07 08:19:51;;;;;;;10.30;2.10;;;20.60;77.50;;;;;;10494172;28;20568;-23
2021/08/07 08:25:13;;;;;;;6.67;1.80;;;20.50;79.10;;;;;;10492135;28;20687;-24
2021/08/07 08:30:39;;;;;;;11.20;2.13;;;20.60;78.70;;;;;;10450840;28;20221;-24
2021/08/07 08:36:01;;;;;;;11.77;2.30;;;20.50;79.00;;;;;;10481251;28;20703;-22
2021/08/07 08:41:24;;;;;;;3.40;1.77;;;20.60;79.20;;;;;;10493416;28;20660;-23
2021/08/07 08:46:48;;;;;;;4.30;1.90;;;20.60;78.60;;;;;;10494335;28;20228;-22
2021/08/07 08:52:10;;;;;;;8.53;2.30;;;20.60;78.90;;;;;;10494562;28;20239;-22
2021/08/07 08:57:32;;;;;;;60.73;5.20;;;20.50;79.00;;;;;;10494408;28;20216;-23
2021/08/07 09:02:56;;;;;;;30.53;4.43;;;20.60;78.90;;;;;;10492215;28;20197;-23
2021/08/07 09:08:18;;;;;;;29.77;3.73;;;20.50;79.90;;;;;;10494042;28;20204;-23
2021/08/07 09:13:41;;;;;;;14.77;3.10;;;20.50;79.60;;;;;;10490161;28;20610;-23
2021/08/07 09:19:04;;;;;;;14.37;3.03;;;20.60;80.30;;;;;;10492676;28;20211;-23
2021/08/07 09:24:26;;;;;;;10.40;2.63;;;20.50;80.30;;;;;;10492772;28;20216;-22
2021/08/07 09:29:49;;;;;;;3.83;1.90;;;20.70;79.80;;;;;;10493156;28;20725;-22
2021/08/07 09:35:15;;;;;;;4.50;2.07;;;21.00;78.60;;;;;;10493148;28;20212;-22
2021/08/07 09:40:46;;;;;;;6.03;2.30;;;21.10;78.90;;;;;;10493010;28;20204;-22
2021/08/07 09:46:11;;;;;;;2.83;1.83;;;20.90;79.00;;;;;;10511198;22;20334;-32
2021/08/07 09:51:36;;;;;;;4.43;1.80;;;20.80;78.40;;;;;;10478746;28;20710;-32
2021/08/07 09:56:58;;;;;;;4.10;1.80;;;20.80;78.50;;;;;;10477997;28;20219;-34
2021/08/07 10:02:24;;;;;;;2.77;1.70;;;20.70;79.80;;;;;;10471716;28;20311;-31
2021/08/07 10:08:03;;;;;;;1.73;1.43;;;20.70;80.40;;;;;;10452459;28;20692;-31
2021/08/07 10:13:26;;;;;;;4.23;1.60;;;20.60;80.30;;;;;;10453021;28;20648;-32
2021/08/07 10:18:50;;;;;;;23.57;3.73;;;20.60;80.00;;;;;;10463251;28;20704;-32
2021/08/07 10:24:13;;;;;;;22.83;3.83;;;20.60;81.70;;;;;;10459812;28;20193;-28
2021/08/07 10:29:39;;;;;;;7.03;2.30;;;20.60;83.50;;;;;;10487871;28;20216;-26
2021/08/07 10:35:02;;;;;;;10.27;3.73;;;20.70;83.80;;;;;;10499620;28;20219;-26
2021/08/07 10:42:02;;;;;;;7.30;2.23;;;20.90;81.60;;;;;;10595890;27;20486;-64
2021/08/07 10:47:41;;;;;;;6.30;2.90;;;21.00;78.60;;;;;;10563879;28;20187;-64
2021/08/07 10:53:06;;;;;;;4.60;1.73;;;21.00;77.70;;;;;;10604792;27;20210;-65
2021/08/07 10:58:41;;;;;;;5.60;1.97;;;21.00;77.30;;;;;;10581298;28;20238;-65
2021/08/07 11:04:11;;;;;;;5.00;2.00;;;21.00;77.00;;;;;;10575252;28;20210;-68
2021/08/07 11:09:36;;;;;;;5.30;1.70;;;21.00;76.60;;;;;;10606911;28;20183;-64
2021/08/07 11:15:09;;;;;;;2.67;1.77;;;21.00;76.30;;;;;;10604458;27;20214;-64
2021/08/07 11:20:43;;;;;;;6.73;3.03;;;21.00;76.10;;;;;;10557277;28;20525;-65
2021/08/07 11:26:06;;;;;;;8.17;3.50;;;21.00;76.30;;;;;;10571050;28;20187;-64
2021/08/07 11:31:30;;;;;;;13.77;3.10;;;21.10;76.40;;;;;;10597440;27;20214;-65
2021/08/07 11:37:12;;;;;;;11.27;3.13;;;21.10;76.30;;;;;;10600830;28;20190;-64
2021/08/07 11:42:37;;;;;;;12.63;2.57;;;21.10;76.30;;;;;;10601106;27;20212;-64
2021/08/07 11:48:01;;;;;;;5.77;2.30;;;21.00;77.90;;;;;;10576122;28;20190;-63
2021/08/07 11:53:24;;;;;;;4.27;2.17;;;21.00;77.70;;;;;;10568544;28;20223;-63
2021/08/07 11:58:50;;;;;;;4.97;1.90;;;21.00;78.30;;;;;;10570522;28;20221;-64
2021/08/07 12:04:14;;;;;;;5.73;2.07;;;21.00;78.60;;;;;;10566425;27;20417;-64
2021/08/07 12:09:36;;;;;;;3.57;1.97;;;21.30;77.20;;;;;;10532042;28;20203;-63
2021/08/07 12:15:06;;;;;;;1.80;1.57;;;21.20;77.90;;;;;;10537234;28;20219;-64
2021/08/07 12:20:29;;;;;;;2.43;1.37;;;21.10;78.20;;;;;;10579876;28;20211;-65
2021/08/07 12:26:00;;;;;;;2.77;1.40;;;21.00;78.40;;;;;;10570924;28;20232;-64
2021/08/07 12:31:22;;;;;;;2.63;1.30;;;21.00;78.40;;;;;;10548870;28;20215;-63
2021/08/07 12:36:59;;;;;;;2.00;1.10;;;21.00;78.50;;;;;;10538332;28;20200;-65
2021/08/07 12:42:23;;;;;;;3.53;1.30;;;21.00;78.60;;;;;;10536792;28;20585;-65
2021/08/07 12:47:45;;;;;;;1.90;1.20;;;20.90;78.60;;;;;;10537104;28;20726;-64
2021/08/07 12:53:08;;;;;;;4.10;1.10;;;20.90;78.70;;;;;;10536169;28;20215;-64
2021/08/07 12:58:31;;;;;;;1.87;1.33;;;20.90;78.80;;;;;;10536696;28;20207;-64
2021/08/07 13:03:55;;;;;;;1.27;1.10;;;20.90;78.70;;;;;;10536359;28;20216;-64
2021/08/07 13:09:26;;;;;;;1.00;0.90;;;20.80;78.50;;;;;;10515299;28;20200;-65
2021/08/07 13:15:07;;;;;;;4.73;1.13;;;20.90;78.50;;;;;;10519866;28;20227;-64
2021/08/07 13:20:37;;;;;;;1.20;1.07;;;20.90;78.40;;;;;;10495219;28;20208;-64
2021/08/07 13:26:06;;;;;;;1.13;1.00;;;20.80;78.40;;;;;;10578076;28;20203;-64
2021/08/07 13:31:31;;;;;;;1.50;0.90;;;20.80;78.50;;;;;;10576968;28;20219;-63
2021/08/07 13:36:55;;;;;;;1.23;1.07;;;20.80;78.60;;;;;;10577546;28;20703;-63
2021/08/07 13:42:22;;;;;;;2.87;0.90;;;20.80;78.70;;;;;;10507038;28;20905;-64
2021/08/07 13:47:44;;;;;;;2.33;1.20;;;20.80;78.80;;;;;;10531752;28;20560;-64
2021/08/07 13:53:06;;;;;;;2.43;1.00;;;20.70;78.80;;;;;;10532060;28;20222;-63
2021/08/07 13:58:30;;;;;;;1.80;1.10;;;20.70;79.10;;;;;;10531455;28;20211;-63
2021/08/07 14:03:52;;;;;;;2.27;1.13;;;20.70;79.30;;;;;;10533307;28;20212;-64
2021/08/07 14:09:14;;;;;;;1.87;1.00;;;20.70;79.60;;;;;;10532595;28;20274;-63
2021/08/07 14:14:38;;;;;;;2.33;1.10;;;20.70;79.40;;;;;;10528312;28;20216;-64
2021/08/07 14:20:00;;;;;;;1.57;0.93;;;20.80;79.50;;;;;;10528770;28;20231;-64
2021/08/07 14:25:22;;;;;;;2.80;1.30;;;20.80;79.40;;;;;;10573327;28;20211;-64
2021/08/07 14:30:46;;;;;;;2.13;1.10;;;20.80;79.40;;;;;;10572955;28;20190;-64
2021/08/07 14:36:08;;;;;;;1.57;0.80;;;20.80;79.50;;;;;;10571699;28;20198;-64
2021/08/07 14:41:30;;;;;;;0.93;0.83;;;20.80;79.30;;;;;;10572246;28;20222;-64
2021/08/07 14:46:53;;;;;;;2.67;1.00;;;20.80;79.20;;;;;;10572947;28;20214;-65
2021/08/07 14:52:16;;;;;;;2.43;0.97;;;20.80;79.30;;;;;;10561631;28;20225;-64
2021/08/07 14:57:38;;;;;;;1.83;0.93;;;20.80;79.00;;;;;;10570451;28;20210;-65
2021/08/07 15:03:01;;;;;;;1.53;0.90;;;20.80;79.00;;;;;;10559485;28;20212;-63
2021/08/07 15:08:23;;;;;;;2.27;1.00;;;20.80;79.00;;;;;;10568850;28;20257;-64
2021/08/07 15:13:46;;;;;;;1.43;0.70;;;20.80;78.90;;;;;;10561763;28;20218;-65
2021/08/07 15:19:09;;;;;;;1.90;0.80;;;20.80;79.30;;;;;;10577442;28;20215;-65
2021/08/07 15:24:32;;;;;;;1.77;1.00;;;20.80;79.50;;;;;;10565403;28;20711;-65
2021/08/07 15:29:54;;;;;;;2.57;1.30;;;20.80;79.20;;;;;;10576172;28;20195;-65
2021/08/07 15:35:18;;;;;;;1.80;1.10;;;20.80;79.10;;;;;;10576930;28;20703;-65
2021/08/07 15:40:40;;;;;;;1.47;1.00;;;20.80;79.10;;;;;;10569313;28;20210;-64
2021/08/07 15:46:02;;;;;;;2.90;0.90;;;20.80;79.30;;;;;;10573054;28;20205;-64
2021/08/07 15:51:26;;;;;;;1.23;0.90;;;20.80;79.70;;;;;;10573473;28;20607;-64
2021/08/07 15:56:48;;;;;;;1.03;0.93;;;20.80;80.50;;;;;;10573493;28;20203;-65
2021/08/07 16:02:10;;;;;;;0.90;0.90;;;20.80;80.30;;;;;;10573243;28;20226;-65
2021/08/07 16:07:33;;;;;;;3.10;1.50;;;20.80;81.30;;;;;;10574000;28;20567;-65
2021/08/07 16:12:56;;;;;;;1.50;1.00;;;20.80;80.50;;;;;;10576978;28;20587;-66
2021/08/07 16:18:18;;;;;;;1.03;0.93;;;20.80;81.70;;;;;;10579395;28;20195;-66
2021/08/07 16:23:41;;;;;;;0.93;0.70;;;20.80;80.80;;;;;;10577304;28;20215;-65
2021/08/07 16:29:04;;;;;;;0.93;0.80;;;20.80;80.60;;;;;;10579366;28;20187;-65
2021/08/07 16:34:26;;;;;;;3.83;1.00;;;20.80;80.30;;;;;;10576841;28;20565;-64
2021/08/07 16:39:49;;;;;;;0.93;0.80;;;20.80;81.30;;;;;;10578753;28;20215;-64
2021/08/07 16:45:12;;;;;;;2.87;0.90;;;20.80;81.50;;;;;;10579438;28;20237;-65
2021/08/07 16:50:34;;;;;;;1.30;1.00;;;20.80;80.60;;;;;;10550642;22;20231;-71
2021/08/07 16:55:57;;;;;;;1.73;0.90;;;20.80;81.10;;;;;;10497012;28;20192;-71
2021/08/07 17:01:19;;;;;;;3.00;1.10;;;20.80;80.80;;;;;;10526092;28;20228;-71
2021/08/07 17:06:42;;;;;;;1.27;1.00;;;20.70;80.70;;;;;;10528826;28;20192;-71
2021/08/07 17:12:07;;;;;;;2.00;0.90;;;20.80;80.50;;;;;;10527230;28;20199;-71
2021/08/07 17:17:29;;;;;;;2.60;1.00;;;20.80;80.20;;;;;;10544939;28;20225;-71
2021/08/07 17:22:51;;;;;;;2.07;0.90;;;20.80;80.10;;;;;;10531753;28;20208;-71
2021/08/07 17:28:15;;;;;;;2.73;1.00;;;20.80;80.00;;;;;;10495032;28;20216;-71
2021/08/07 17:33:37;;;;;;;1.17;0.70;;;20.80;79.80;;;;;;10494407;28;20199;-71
2021/08/07 17:38:59;;;;;;;1.47;0.90;;;20.80;79.80;;;;;;10515504;28;20222;-71
2021/08/07 17:44:22;;;;;;;2.13;1.00;;;20.80;79.80;;;;;;10499590;28;20204;-70
2021/08/07 17:49:45;;;;;;;1.53;1.10;;;20.80;79.90;;;;;;10494168;28;20227;-71
2021/08/07 17:55:07;;;;;;;2.03;1.00;;;20.80;80.50;;;;;;10494601;28;20579;-71
2021/08/07 18:00:34;;;;;;;1.07;0.90;;;20.80;80.20;;;;;;10493180;28;20216;-71
2021/08/07 18:05:56;;;;;;;3.13;1.00;;;20.80;80.20;;;;;;10505495;28;20195;-70
2021/08/07 18:11:19;;;;;;;1.07;0.70;;;20.80;80.10;;;;;;10492652;28;20327;-71
2021/08/07 18:16:43;;;;;;;2.70;1.10;;;20.70;80.20;;;;;;10492536;28;20200;-71
2021/08/07 18:22:05;;;;;;;1.70;1.17;;;20.70;80.20;;;;;;10507890;28;20207;-71
2021/08/07 18:27:27;;;;;;;2.67;0.97;;;20.70;80.30;;;;;;10531396;28;20659;-71
2021/08/07 18:32:50;;;;;;;2.30;1.00;;;20.70;80.30;;;;;;10497476;28;20204;-70
2021/08/07 18:38:13;;;;;;;1.50;1.10;;;20.70;80.20;;;;;;10493148;28;20212;-71
2021/08/07 18:43:35;;;;;;;1.57;0.90;;;20.70;80.20;;;;;;10491434;28;20185;-71
2021/08/07 18:48:58;;;;;;;1.60;0.90;;;20.70;80.20;;;;;;10492654;28;20220;-71
2021/08/07 18:54:20;;;;;;;1.83;1.10;;;20.80;80.20;;;;;;10495606;28;20574;-71
2021/08/07 18:59:42;;;;;;;2.27;1.33;;;20.70;80.10;;;;;;10493937;28;20737;-70
2021/08/07 19:05:07;;;;;;;1.53;0.90;;;20.80;80.10;;;;;;10512313;28;20193;-70
2021/08/07 19:10:30;;;;;;;1.90;0.90;;;20.80;80.00;;;;;;10517531;28;20223;-70
2021/08/07 19:15:52;;;;;;;1.50;0.97;;;20.80;79.90;;;;;;10542898;28;20750;-70
2021/08/07 19:21:16;;;;;;;2.30;1.03;;;20.70;79.80;;;;;;10565685;28;20734;-71
2021/08/07 19:26:38;;;;;;;1.03;0.97;;;20.70;79.80;;;;;;10500087;28;20219;-70
2021/08/07 19:32:00;;;;;;;1.73;1.10;;;20.80;79.80;;;;;;10499959;28;20192;-71
2021/08/07 19:37:24;;;;;;;2.00;0.97;;;20.80;79.80;;;;;;10499169;28;20219;-71
2021/08/07 19:42:46;;;;;;;1.30;0.70;;;20.80;79.80;;;;;;10501742;28;20219;-71
2021/08/07 19:48:08;;;;;;;1.80;1.10;;;20.80;79.70;;;;;;10499397;28;20216;-70
2021/08/07 19:53:32;;;;;;;1.10;1.00;;;20.70;80.00;;;;;;10496737;28;20192;-70
2021/08/07 19:58:54;;;;;;;2.27;1.20;;;20.70;80.60;;;;;;10530900;28;20222;-71
2021/08/07 20:04:17;;;;;;;4.43;1.30;;;20.60;80.80;;;;;;10539159;28;20439;-70
2021/08/07 20:09:40;;;;;;;1.57;1.07;;;20.60;80.70;;;;;;10498954;28;20227;-70
2021/08/07 20:15:03;;;;;;;1.60;1.27;;;20.60;80.60;;;;;;10519391;28;20200;-70
2021/08/07 20:20:25;;;;;;;1.53;1.00;;;20.60;80.40;;;;;;10532630;28;20230;-71
2021/08/07 20:25:48;;;;;;;3.17;1.30;;;20.50;80.10;;;;;;10508497;28;20289;-70
2021/08/07 20:31:11;;;;;;;1.77;0.90;;;20.50;79.90;;;;;;10544520;28;20210;-71
2021/08/07 20:36:33;;;;;;;1.10;0.90;;;20.50;79.70;;;;;;10533632;28;20195;-70
2021/08/07 20:41:56;;;;;;;1.50;1.10;;;20.50;79.60;;;;;;10532276;28;20697;-71
2021/08/07 20:47:19;;;;;;;3.97;1.30;;;20.50;79.40;;;;;;10531817;28;20198;-71
2021/08/07 20:52:41;;;;;;;1.83;1.17;;;20.50;79.20;;;;;;10533754;28;20666;-71
2021/08/07 20:58:05;;;;;;;3.50;1.10;;;20.50;78.90;;;;;;10532199;28;20585;-71
2021/08/07 21:03:27;;;;;;;3.37;1.00;;;20.50;78.50;;;;;;10537858;28;20677;-71
2021/08/07 21:08:49;;;;;;;3.50;1.40;;;20.50;78.10;;;;;;10558273;28;20564;-71
2021/08/07 21:14:12;;;;;;;3.30;1.20;;;20.50;78.00;;;;;;10536462;28;20795;-71
2021/08/07 21:19:35;;;;;;;2.07;1.10;;;20.50;78.00;;;;;;10533188;28;20721;-71
2021/08/07 21:24:57;;;;;;;3.87;1.60;;;20.50;77.90;;;;;;10536214;28;20195;-71
2021/08/07 21:30:21;;;;;;;3.37;2.47;;;20.50;77.70;;;;;;10534356;28;20212;-71
2021/08/07 21:35:43;;;;;;;4.10;2.80;;;20.40;77.40;;;;;;10538707;28;20188;-71
2021/08/07 21:41:05;;;;;;;4.83;2.70;;;20.40;77.30;;;;;;10517220;28;20766;-71
2021/08/07 21:46:29;;;;;;;3.17;2.00;;;20.40;77.20;;;;;;10494878;28;20200;-70
2021/08/07 21:51:51;;;;;;;3.20;1.60;;;20.30;77.10;;;;;;10493123;28;20224;-71
2021/08/07 21:57:13;;;;;;;3.60;1.47;;;20.30;76.90;;;;;;10494370;28;20702;-69
2021/08/07 22:02:36;;;;;;;3.23;1.23;;;20.30;76.60;;;;;;10507746;28;20565;-69
2021/08/07 22:07:58;;;;;;;2.67;1.30;;;20.30;76.50;;;;;;10522005;28;20223;-69
2021/08/07 22:13:20;;;;;;;2.50;1.70;;;20.30;76.40;;;;;;10528730;28;20630;-70
2021/08/07 22:18:44;;;;;;;2.87;1.40;;;20.30;76.40;;;;;;10512865;28;20246;-69
2021/08/07 22:24:07;;;;;;;2.33;1.20;;;20.20;76.20;;;;;;10524101;28;20633;-69
2021/08/07 22:29:29;;;;;;;2.57;1.23;;;20.20;76.10;;;;;;10559397;28;20268;-69
2021/08/07 22:34:52;;;;;;;2.20;1.10;;;20.20;76.00;;;;;;10576052;28;20202;-69
2021/08/07 22:40:14;;;;;;;5.50;1.60;;;20.20;76.10;;;;;;10575216;28;20215;-69
2021/08/07 22:45:36;;;;;;;2.87;1.40;;;20.20;76.00;;;;;;10575174;28;20195;-69
2021/08/07 22:51:00;;;;;;;1.43;1.33;;;20.20;76.10;;;;;;10572304;28;20708;-69
2021/08/07 22:56:22;;;;;;;2.10;1.50;;;20.20;76.20;;;;;;10576287;28;20198;-68
2021/08/07 23:01:44;;;;;;;2.47;1.60;;;20.10;76.10;;;;;;10574659;28;20223;-68
2021/08/07 23:07:07;;;;;;;1.57;1.30;;;20.20;76.00;;;;;;10529605;28;20198;-69
2021/08/07 23:12:29;;;;;;;2.47;1.50;;;20.10;75.90;;;;;;10535139;28;20195;-68
2021/08/07 23:17:51;;;;;;;2.03;1.23;;;20.10;75.80;;;;;;10561610;28;20574;-68
2021/08/07 23:23:15;;;;;;;2.30;1.10;;;20.10;75.80;;;;;;10538352;28;20231;-68
2021/08/07 23:28:37;;;;;;;5.07;1.27;;;20.10;75.90;;;;;;10533738;28;20215;-68
2021/08/07 23:33:59;;;;;;;2.10;1.60;;;20.10;75.90;;;;;;10534922;28;20567;-69
2021/08/07 23:39:23;;;;;;;3.47;1.70;;;20.10;76.00;;;;;;10541098;28;20211;-69
2021/08/07 23:44:45;;;;;;;2.60;1.53;;;20.10;75.90;;;;;;10503426;28;20196;-68
2021/08/07 23:50:08;;;;;;;4.80;1.57;;;20.10;75.90;;;;;;10498493;28;20224;-68
2021/08/07 23:55:32;;;;;;;1.50;1.10;;;20.10;76.00;;;;;;10499107;28;20199;-68
